sensor_id;sensor_type;location;lat;lon;timestamp;P1;durP1;ratioP1;P2;durP2;ratioP2
21181;SDS011;10749;46.296;7.524;2022-07-29T00:01:20;3.15;;;1.13;;
21181;SDS011;10749;46.296;7.524;2022-07-29T00:03:45;1.75;;;1.45;;
21181;SDS011;10749;46.296;7.524;2022-07-29T00:06:11;1.40;;;1.30;;
21181;SDS011;10749;46.296;7.524;2022-07-29T00:08:36;2.95;;;1.40;;
21181;SDS011;10749;46.296;7.524;2022-07-29T00:11:01;2.40;;;1.40;;
21181;SDS011;10749;46.296;7.524;2022-07-29T00:13:27;1.67;;;1.35;;
21181;SDS011;10749;46.296;7.524;2022-07-29T00:15:52;2.55;;;1.52;;
21181;SDS011;10749;46.296;7.524;2022-07-29T00:18:17;1.63;;;1.25;;
21181;SDS011;10749;46.296;7.524;2022-07-29T00:20:43;1.60;;;1.50;;
21181;SDS011;10749;46.296;7.524;2022-07-29T00:23:08;2.13;;;1.58;;
21181;SDS011;10749;46.296;7.524;2022-07-29T00:25:33;1.67;;;1.50;;
21181;SDS011;10749;46.296;7.524;2022-07-29T00:27:59;1.40;;;1.30;;
21181;SDS011;10749;46.296;7.524;2022-07-29T00:30:24;1.77;;;1.30;;
21181;SDS011;10749;46.296;7.524;2022-07-29T00:32:49;2.10;;;1.60;;
21181;SDS011;10749;46.296;7.524;2022-07-29T00:35:15;3.28;;;1.60;;
21181;SDS011;10749;46.296;7.524;2022-07-29T00:37:58;1.48;;;1.20;;
21181;SDS011;10749;46.296;7.524;2022-07-29T00:40:24;3.75;;;1.40;;
21181;SDS011;10749;46.296;7.524;2022-07-29T00:42:50;1.85;;;1.40;;
21181;SDS011;10749;46.296;7.524;2022-07-29T00:45:16;1.92;;;1.40;;
21181;SDS011;10749;46.296;7.524;2022-07-29T00:47:42;1.67;;;1.58;;
21181;SDS011;10749;46.296;7.524;2022-07-29T00:50:08;2.50;;;1.45;;
21181;SDS011;10749;46.296;7.524;2022-07-29T00:52:35;3.33;;;1.38;;
21181;SDS011;10749;46.296;7.524;2022-07-29T00:55:02;1.95;;;1.70;;
21181;SDS011;10749;46.296;7.524;2022-07-29T00:57:29;1.40;;;1.30;;
21181;SDS011;10749;46.296;7.524;2022-07-29T00:59:55;1.80;;;1.20;;
21181;SDS011;10749;46.296;7.524;2022-07-29T01:02:20;2.25;;;1.50;;
21181;SDS011;10749;46.296;7.524;2022-07-29T01:04:46;2.42;;;1.50;;
21181;SDS011;10749;46.296;7.524;2022-07-29T01:07:11;3.60;;;1.30;;
21181;SDS011;10749;46.296;7.524;2022-07-29T01:09:37;2.80;;;1.23;;
21181;SDS011;10749;46.296;7.524;2022-07-29T01:12:03;2.40;;;1.40;;
21181;SDS011;10749;46.296;7.524;2022-07-29T01:14:30;1.90;;;1.35;;
21181;SDS011;10749;46.296;7.524;2022-07-29T01:17:01;3.50;;;1.55;;
21181;SDS011;10749;46.296;7.524;2022-07-29T01:22:28;1.95;;;1.42;;
21181;SDS011;10749;46.296;7.524;2022-07-29T01:30:25;1.67;;;1.55;;
21181;SDS011;10749;46.296;7.524;2022-07-29T01:32:59;1.98;;;1.50;;
21181;SDS011;10749;46.296;7.524;2022-07-29T01:35:33;2.53;;;1.13;;
21181;SDS011;10749;46.296;7.524;2022-07-29T01:38:11;1.60;;;1.20;;
21181;SDS011;10749;46.296;7.524;2022-07-29T01:40:46;1.95;;;1.17;;
21181;SDS011;10749;46.296;7.524;2022-07-29T01:43:18;2.58;;;1.27;;
21181;SDS011;10749;46.296;7.524;2022-07-29T01:53:50;1.55;;;1.30;;
21181;SDS011;10749;46.296;7.524;2022-07-29T01:56:16;2.35;;;1.63;;
21181;SDS011;10749;46.296;7.524;2022-07-29T01:58:44;1.90;;;1.42;;
21181;SDS011;10749;46.296;7.524;2022-07-29T02:01:12;1.50;;;1.30;;
21181;SDS011;10749;46.296;7.524;2022-07-29T02:03:39;1.70;;;1.25;;
21181;SDS011;10749;46.296;7.524;2022-07-29T02:06:08;3.25;;;1.65;;
21181;SDS011;10749;46.296;7.524;2022-07-29T02:08:35;2.00;;;1.30;;
21181;SDS011;10749;46.296;7.524;2022-07-29T02:11:03;3.92;;;1.50;;
21181;SDS011;10749;46.296;7.524;2022-07-29T02:13:30;2.90;;;1.33;;
21181;SDS011;10749;46.296;7.524;2022-07-29T02:15:59;2.95;;;1.58;;
21181;SDS011;10749;46.296;7.524;2022-07-29T02:18:27;3.15;;;1.50;;
21181;SDS011;10749;46.296;7.524;2022-07-29T02:20:55;3.08;;;1.30;;
21181;SDS011;10749;46.296;7.524;2022-07-29T02:23:23;3.38;;;1.60;;
21181;SDS011;10749;46.296;7.524;2022-07-29T02:25:50;3.63;;;1.60;;
21181;SDS011;10749;46.296;7.524;2022-07-29T02:28:20;1.55;;;1.20;;
21181;SDS011;10749;46.296;7.524;2022-07-29T02:30:49;2.95;;;1.27;;
21181;SDS011;10749;46.296;7.524;2022-07-29T02:33:16;2.08;;;1.67;;
21181;SDS011;10749;46.296;7.524;2022-07-29T02:35:43;2.35;;;1.48;;
21181;SDS011;10749;46.296;7.524;2022-07-29T02:38:12;2.17;;;1.30;;
21181;SDS011;10749;46.296;7.524;2022-07-29T02:40:58;1.92;;;1.50;;
21181;SDS011;10749;46.296;7.524;2022-07-29T02:43:26;1.40;;;1.30;;
21181;SDS011;10749;46.296;7.524;2022-07-29T02:45:53;2.35;;;1.30;;
21181;SDS011;10749;46.296;7.524;2022-07-29T02:48:21;3.00;;;1.52;;
21181;SDS011;10749;46.296;7.524;2022-07-29T02:50:52;1.92;;;1.30;;
21181;SDS011;10749;46.296;7.524;2022-07-29T02:53:26;2.33;;;1.60;;
21181;SDS011;10749;46.296;7.524;2022-07-29T02:55:56;2.15;;;1.42;;
21181;SDS011;10749;46.296;7.524;2022-07-29T02:58:33;1.67;;;1.30;;
21181;SDS011;10749;46.296;7.524;2022-07-29T03:01:03;2.78;;;1.30;;
21181;SDS011;10749;46.296;7.524;2022-07-29T03:03:34;2.45;;;1.38;;
21181;SDS011;10749;46.296;7.524;2022-07-29T03:06:02;1.70;;;1.30;;
21181;SDS011;10749;46.296;7.524;2022-07-29T03:08:29;2.38;;;1.42;;
21181;SDS011;10749;46.296;7.524;2022-07-29T03:10:56;2.63;;;1.65;;
21181;SDS011;10749;46.296;7.524;2022-07-29T03:13:22;2.45;;;1.42;;
21181;SDS011;10749;46.296;7.524;2022-07-29T03:15:49;2.38;;;1.52;;
21181;SDS011;10749;46.296;7.524;2022-07-29T03:18:15;3.47;;;1.38;;
21181;SDS011;10749;46.296;7.524;2022-07-29T03:20:41;1.50;;;1.27;;
21181;SDS011;10749;46.296;7.524;2022-07-29T03:23:07;1.95;;;1.27;;
21181;SDS011;10749;46.296;7.524;2022-07-29T03:25:33;2.60;;;1.10;;
21181;SDS011;10749;46.296;7.524;2022-07-29T03:27:58;1.60;;;1.40;;
21181;SDS011;10749;46.296;7.524;2022-07-29T03:30:24;3.08;;;1.40;;
21181;SDS011;10749;46.296;7.524;2022-07-29T03:32:50;2.40;;;1.70;;
21181;SDS011;10749;46.296;7.524;2022-07-29T03:35:16;2.55;;;1.70;;
21181;SDS011;10749;46.296;7.524;2022-07-29T03:37:41;2.47;;;1.33;;
21181;SDS011;10749;46.296;7.524;2022-07-29T03:40:08;2.40;;;1.60;;
21181;SDS011;10749;46.296;7.524;2022-07-29T03:42:36;2.22;;;1.40;;
21181;SDS011;10749;46.296;7.524;2022-07-29T03:45:09;1.55;;;1.45;;
21181;SDS011;10749;46.296;7.524;2022-07-29T03:47:38;1.75;;;1.30;;
21181;SDS011;10749;46.296;7.524;2022-07-29T03:50:08;3.65;;;1.85;;
21181;SDS011;10749;46.296;7.524;2022-07-29T03:52:36;1.85;;;1.50;;
21181;SDS011;10749;46.296;7.524;2022-07-29T03:55:02;3.53;;;1.65;;
21181;SDS011;10749;46.296;7.524;2022-07-29T03:57:28;2.25;;;1.40;;
21181;SDS011;10749;46.296;7.524;2022-07-29T03:59:55;2.00;;;1.60;;
21181;SDS011;10749;46.296;7.524;2022-07-29T04:02:22;1.83;;;1.50;;
21181;SDS011;10749;46.296;7.524;2022-07-29T04:04:48;2.42;;;1.48;;
21181;SDS011;10749;46.296;7.524;2022-07-29T04:07:14;1.88;;;1.45;;
21181;SDS011;10749;46.296;7.524;2022-07-29T04:09:40;1.70;;;1.42;;
21181;SDS011;10749;46.296;7.524;2022-07-29T04:12:05;2.40;;;1.60;;
21181;SDS011;10749;46.296;7.524;2022-07-29T04:14:31;3.45;;;1.55;;
21181;SDS011;10749;46.296;7.524;2022-07-29T04:16:57;2.20;;;1.65;;
21181;SDS011;10749;46.296;7.524;2022-07-29T04:19:23;3.05;;;1.70;;
21181;SDS011;10749;46.296;7.524;2022-07-29T04:21:48;1.90;;;1.55;;
21181;SDS011;10749;46.296;7.524;2022-07-29T04:24:13;1.73;;;1.50;;
21181;SDS011;10749;46.296;7.524;2022-07-29T04:26:39;2.03;;;1.40;;
21181;SDS011;10749;46.296;7.524;2022-07-29T04:29:04;1.67;;;1.30;;
21181;SDS011;10749;46.296;7.524;2022-07-29T04:31:29;2.30;;;1.60;;
21181;SDS011;10749;46.296;7.524;2022-07-29T04:33:55;2.28;;;1.55;;
21181;SDS011;10749;46.296;7.524;2022-07-29T04:36:20;2.63;;;1.52;;
21181;SDS011;10749;46.296;7.524;2022-07-29T04:38:45;2.25;;;1.40;;
21181;SDS011;10749;46.296;7.524;2022-07-29T04:41:10;3.75;;;1.58;;
21181;SDS011;10749;46.296;7.524;2022-07-29T04:43:36;5.50;;;1.52;;
21181;SDS011;10749;46.296;7.524;2022-07-29T04:46:02;2.83;;;1.50;;
21181;SDS011;10749;46.296;7.524;2022-07-29T04:48:28;1.58;;;1.25;;
21181;SDS011;10749;46.296;7.524;2022-07-29T04:50:54;2.38;;;1.75;;
21181;SDS011;10749;46.296;7.524;2022-07-29T04:53:19;3.17;;;1.40;;
21181;SDS011;10749;46.296;7.524;2022-07-29T04:55:44;3.97;;;1.58;;
21181;SDS011;10749;46.296;7.524;2022-07-29T04:58:10;2.13;;;1.40;;
21181;SDS011;10749;46.296;7.524;2022-07-29T05:00:36;2.50;;;1.50;;
21181;SDS011;10749;46.296;7.524;2022-07-29T05:03:01;1.90;;;1.70;;
21181;SDS011;10749;46.296;7.524;2022-07-29T05:05:26;2.08;;;1.60;;
21181;SDS011;10749;46.296;7.524;2022-07-29T05:07:52;4.15;;;1.75;;
21181;SDS011;10749;46.296;7.524;2022-07-29T05:10:17;3.58;;;2.05;;
21181;SDS011;10749;46.296;7.524;2022-07-29T05:12:42;3.13;;;1.80;;
21181;SDS011;10749;46.296;7.524;2022-07-29T05:15:08;3.60;;;1.60;;
21181;SDS011;10749;46.296;7.524;2022-07-29T05:17:34;4.32;;;2.00;;
21181;SDS011;10749;46.296;7.524;2022-07-29T05:19:59;4.00;;;2.22;;
21181;SDS011;10749;46.296;7.524;2022-07-29T05:22:24;2.47;;;1.60;;
21181;SDS011;10749;46.296;7.524;2022-07-29T05:24:50;3.17;;;1.90;;
21181;SDS011;10749;46.296;7.524;2022-07-29T05:27:15;3.35;;;1.65;;
21181;SDS011;10749;46.296;7.524;2022-07-29T05:29:40;3.63;;;2.00;;
21181;SDS011;10749;46.296;7.524;2022-07-29T05:32:06;2.20;;;1.65;;
21181;SDS011;10749;46.296;7.524;2022-07-29T05:34:31;1.83;;;1.70;;
21181;SDS011;10749;46.296;7.524;2022-07-29T05:36:57;2.90;;;1.70;;
21181;SDS011;10749;46.296;7.524;2022-07-29T05:39:22;3.83;;;1.80;;
21181;SDS011;10749;46.296;7.524;2022-07-29T05:41:48;2.10;;;1.67;;
21181;SDS011;10749;46.296;7.524;2022-07-29T05:44:13;2.33;;;1.60;;
21181;SDS011;10749;46.296;7.524;2022-07-29T05:46:39;3.17;;;1.70;;
21181;SDS011;10749;46.296;7.524;2022-07-29T05:49:05;4.85;;;1.83;;
21181;SDS011;10749;46.296;7.524;2022-07-29T05:51:31;2.55;;;1.60;;
21181;SDS011;10749;46.296;7.524;2022-07-29T05:53:57;3.58;;;1.77;;
21181;SDS011;10749;46.296;7.524;2022-07-29T05:56:23;1.85;;;1.50;;
21181;SDS011;10749;46.296;7.524;2022-07-29T05:58:49;4.53;;;1.90;;
21181;SDS011;10749;46.296;7.524;2022-07-29T06:01:14;3.08;;;1.77;;
21181;SDS011;10749;46.296;7.524;2022-07-29T06:03:39;3.53;;;1.80;;
21181;SDS011;10749;46.296;7.524;2022-07-29T06:06:06;4.10;;;1.83;;
21181;SDS011;10749;46.296;7.524;2022-07-29T06:08:32;5.80;;;1.77;;
21181;SDS011;10749;46.296;7.524;2022-07-29T06:10:58;6.72;;;1.90;;
21181;SDS011;10749;46.296;7.524;2022-07-29T06:13:24;2.58;;;1.98;;
21181;SDS011;10749;46.296;7.524;2022-07-29T06:15:49;7.60;;;2.00;;
21181;SDS011;10749;46.296;7.524;2022-07-29T06:18:14;4.85;;;1.70;;
21181;SDS011;10749;46.296;7.524;2022-07-29T06:20:40;3.28;;;1.67;;
21181;SDS011;10749;46.296;7.524;2022-07-29T06:23:06;4.28;;;2.10;;
21181;SDS011;10749;46.296;7.524;2022-07-29T06:25:31;3.17;;;1.77;;
21181;SDS011;10749;46.296;7.524;2022-07-29T06:28:01;2.97;;;1.65;;
21181;SDS011;10749;46.296;7.524;2022-07-29T06:30:26;6.50;;;1.75;;
21181;SDS011;10749;46.296;7.524;2022-07-29T06:32:53;1.95;;;1.70;;
21181;SDS011;10749;46.296;7.524;2022-07-29T06:35:19;3.75;;;1.88;;
21181;SDS011;10749;46.296;7.524;2022-07-29T06:37:45;3.55;;;1.70;;
21181;SDS011;10749;46.296;7.524;2022-07-29T06:40:11;3.00;;;1.70;;
21181;SDS011;10749;46.296;7.524;2022-07-29T06:42:55;3.95;;;1.70;;
21181;SDS011;10749;46.296;7.524;2022-07-29T06:45:20;3.88;;;1.63;;
21181;SDS011;10749;46.296;7.524;2022-07-29T06:47:46;2.20;;;1.48;;
21181;SDS011;10749;46.296;7.524;2022-07-29T06:50:11;2.25;;;1.80;;
21181;SDS011;10749;46.296;7.524;2022-07-29T06:52:37;5.45;;;1.60;;
21181;SDS011;10749;46.296;7.524;2022-07-29T06:55:03;2.85;;;1.80;;
21181;SDS011;10749;46.296;7.524;2022-07-29T06:57:29;2.72;;;1.90;;
21181;SDS011;10749;46.296;7.524;2022-07-29T06:59:55;3.28;;;1.50;;
21181;SDS011;10749;46.296;7.524;2022-07-29T07:02:21;2.40;;;1.63;;
21181;SDS011;10749;46.296;7.524;2022-07-29T07:04:46;1.95;;;1.33;;
21181;SDS011;10749;46.296;7.524;2022-07-29T07:07:12;2.50;;;1.60;;
21181;SDS011;10749;46.296;7.524;2022-07-29T07:09:37;3.80;;;1.90;;
21181;SDS011;10749;46.296;7.524;2022-07-29T07:12:02;2.63;;;2.10;;
21181;SDS011;10749;46.296;7.524;2022-07-29T07:14:28;3.55;;;1.58;;
21181;SDS011;10749;46.296;7.524;2022-07-29T07:16:53;2.08;;;1.75;;
21181;SDS011;10749;46.296;7.524;2022-07-29T07:19:18;4.05;;;1.80;;
21181;SDS011;10749;46.296;7.524;2022-07-29T07:21:44;5.30;;;2.30;;
21181;SDS011;10749;46.296;7.524;2022-07-29T07:24:09;4.00;;;2.10;;
21181;SDS011;10749;46.296;7.524;2022-07-29T07:26:34;3.85;;;1.90;;
21181;SDS011;10749;46.296;7.524;2022-07-29T07:29:00;3.17;;;1.60;;
21181;SDS011;10749;46.296;7.524;2022-07-29T07:31:25;2.90;;;1.67;;
21181;SDS011;10749;46.296;7.524;2022-07-29T07:33:50;3.88;;;1.85;;
21181;SDS011;10749;46.296;7.524;2022-07-29T07:36:17;4.38;;;2.05;;
21181;SDS011;10749;46.296;7.524;2022-07-29T07:38:42;3.35;;;1.70;;
21181;SDS011;10749;46.296;7.524;2022-07-29T07:41:07;3.53;;;1.95;;
21181;SDS011;10749;46.296;7.524;2022-07-29T07:43:33;4.43;;;2.20;;
21181;SDS011;10749;46.296;7.524;2022-07-29T07:45:58;2.90;;;1.70;;
21181;SDS011;10749;46.296;7.524;2022-07-29T07:48:24;4.97;;;1.80;;
21181;SDS011;10749;46.296;7.524;2022-07-29T07:50:49;2.00;;;1.60;;
21181;SDS011;10749;46.296;7.524;2022-07-29T07:53:15;3.08;;;1.73;;
21181;SDS011;10749;46.296;7.524;2022-07-29T07:55:41;2.85;;;1.88;;
21181;SDS011;10749;46.296;7.524;2022-07-29T07:58:07;1.80;;;1.70;;
21181;SDS011;10749;46.296;7.524;2022-07-29T08:00:33;2.80;;;1.70;;
21181;SDS011;10749;46.296;7.524;2022-07-29T08:02:58;3.55;;;1.60;;
21181;SDS011;10749;46.296;7.524;2022-07-29T08:05:23;2.35;;;1.73;;
21181;SDS011;10749;46.296;7.524;2022-07-29T08:07:49;3.60;;;1.67;;
21181;SDS011;10749;46.296;7.524;2022-07-29T08:10:15;2.10;;;1.42;;
21181;SDS011;10749;46.296;7.524;2022-07-29T08:13:08;2.40;;;1.92;;
21181;SDS011;10749;46.296;7.524;2022-07-29T08:15:35;4.68;;;1.83;;
21181;SDS011;10749;46.296;7.524;2022-07-29T08:18:01;2.67;;;1.67;;
21181;SDS011;10749;46.296;7.524;2022-07-29T08:20:26;2.20;;;1.80;;
21181;SDS011;10749;46.296;7.524;2022-07-29T08:22:52;3.78;;;2.15;;
21181;SDS011;10749;46.296;7.524;2022-07-29T08:25:18;2.92;;;2.00;;
21181;SDS011;10749;46.296;7.524;2022-07-29T08:27:45;4.10;;;2.45;;
21181;SDS011;10749;46.296;7.524;2022-07-29T08:30:13;7.40;;;2.58;;
21181;SDS011;10749;46.296;7.524;2022-07-29T08:32:39;3.10;;;2.10;;
21181;SDS011;10749;46.296;7.524;2022-07-29T08:35:04;4.55;;;2.50;;
21181;SDS011;10749;46.296;7.524;2022-07-29T08:37:30;6.47;;;2.65;;
21181;SDS011;10749;46.296;7.524;2022-07-29T08:39:55;5.32;;;2.08;;
21181;SDS011;10749;46.296;7.524;2022-07-29T08:42:20;4.07;;;2.28;;
21181;SDS011;10749;46.296;7.524;2022-07-29T08:44:46;6.05;;;2.25;;
21181;SDS011;10749;46.296;7.524;2022-07-29T08:47:13;6.20;;;2.10;;
21181;SDS011;10749;46.296;7.524;2022-07-29T08:49:39;5.07;;;2.20;;
21181;SDS011;10749;46.296;7.524;2022-07-29T08:52:05;4.10;;;2.40;;
21181;SDS011;10749;46.296;7.524;2022-07-29T08:54:30;6.65;;;2.47;;
21181;SDS011;10749;46.296;7.524;2022-07-29T08:56:55;4.07;;;2.00;;
21181;SDS011;10749;46.296;7.524;2022-07-29T08:59:22;5.57;;;2.35;;
21181;SDS011;10749;46.296;7.524;2022-07-29T09:01:50;3.15;;;1.90;;
21181;SDS011;10749;46.296;7.524;2022-07-29T09:04:18;3.20;;;2.10;;
21181;SDS011;10749;46.296;7.524;2022-07-29T09:06:45;3.28;;;1.90;;
21181;SDS011;10749;46.296;7.524;2022-07-29T09:09:13;3.08;;;2.10;;
21181;SDS011;10749;46.296;7.524;2022-07-29T09:11:39;2.17;;;1.98;;
21181;SDS011;10749;46.296;7.524;2022-07-29T09:14:05;3.38;;;1.60;;
21181;SDS011;10749;46.296;7.524;2022-07-29T09:19:23;4.45;;;1.85;;
21181;SDS011;10749;46.296;7.524;2022-07-29T09:21:49;2.83;;;1.80;;
21181;SDS011;10749;46.296;7.524;2022-07-29T09:24:25;2.15;;;1.70;;
21181;SDS011;10749;46.296;7.524;2022-07-29T09:27:01;2.80;;;1.77;;
21181;SDS011;10749;46.296;7.524;2022-07-29T09:29:27;3.15;;;1.90;;
21181;SDS011;10749;46.296;7.524;2022-07-29T09:31:53;3.00;;;1.95;;
21181;SDS011;10749;46.296;7.524;2022-07-29T09:36:49;3.03;;;1.98;;
21181;SDS011;10749;46.296;7.524;2022-07-29T09:39:16;3.45;;;2.30;;
21181;SDS011;10749;46.296;7.524;2022-07-29T09:42:03;2.20;;;2.00;;
21181;SDS011;10749;46.296;7.524;2022-07-29T09:44:46;4.60;;;2.15;;
21181;SDS011;10749;46.296;7.524;2022-07-29T09:47:16;2.20;;;1.80;;
21181;SDS011;10749;46.296;7.524;2022-07-29T09:49:55;4.20;;;2.20;;
21181;SDS011;10749;46.296;7.524;2022-07-29T09:52:26;6.72;;;2.15;;
21181;SDS011;10749;46.296;7.524;2022-07-29T09:54:52;3.30;;;1.80;;
21181;SDS011;10749;46.296;7.524;2022-07-29T09:57:28;2.95;;;2.38;;
21181;SDS011;10749;46.296;7.524;2022-07-29T10:00:01;4.20;;;2.10;;
21181;SDS011;10749;46.296;7.524;2022-07-29T10:02:32;3.33;;;2.08;;
21181;SDS011;10749;46.296;7.524;2022-07-29T10:05:00;3.75;;;1.95;;
21181;SDS011;10749;46.296;7.524;2022-07-29T10:07:42;2.65;;;2.17;;
21181;SDS011;10749;46.296;7.524;2022-07-29T10:10:17;5.18;;;2.28;;
21181;SDS011;10749;46.296;7.524;2022-07-29T10:12:48;2.33;;;2.10;;
21181;SDS011;10749;46.296;7.524;2022-07-29T10:15:17;6.20;;;2.10;;
21181;SDS011;10749;46.296;7.524;2022-07-29T10:17:43;3.85;;;2.10;;
21181;SDS011;10749;46.296;7.524;2022-07-29T10:20:09;2.78;;;2.10;;
21181;SDS011;10749;46.296;7.524;2022-07-29T10:22:35;6.03;;;2.33;;
21181;SDS011;10749;46.296;7.524;2022-07-29T10:25:01;3.47;;;2.00;;
21181;SDS011;10749;46.296;7.524;2022-07-29T10:27:27;4.70;;;2.58;;
21181;SDS011;10749;46.296;7.524;2022-07-29T10:29:53;4.47;;;2.38;;
21181;SDS011;10749;46.296;7.524;2022-07-29T10:35:15;4.35;;;2.63;;
21181;SDS011;10749;46.296;7.524;2022-07-29T10:37:59;6.03;;;2.42;;
21181;SDS011;10749;46.296;7.524;2022-07-29T10:43:23;3.75;;;2.33;;
21181;SDS011;10749;46.296;7.524;2022-07-29T10:45:57;3.17;;;2.50;;
21181;SDS011;10749;46.296;7.524;2022-07-29T10:48:24;3.28;;;2.72;;
21181;SDS011;10749;46.296;7.524;2022-07-29T10:50:53;5.70;;;2.95;;
21181;SDS011;10749;46.296;7.524;2022-07-29T10:53:21;6.95;;;3.10;;
21181;SDS011;10749;46.296;7.524;2022-07-29T10:55:48;4.45;;;2.67;;
21181;SDS011;10749;46.296;7.524;2022-07-29T11:00:40;4.10;;;2.35;;
21181;SDS011;10749;46.296;7.524;2022-07-29T11:03:06;4.30;;;2.38;;
21181;SDS011;10749;46.296;7.524;2022-07-29T11:05:51;4.22;;;2.80;;
21181;SDS011;10749;46.296;7.524;2022-07-29T11:08:18;5.05;;;2.58;;
21181;SDS011;10749;46.296;7.524;2022-07-29T11:10:49;10.50;;;2.88;;
21181;SDS011;10749;46.296;7.524;2022-07-29T11:16:12;5.10;;;3.08;;
21181;SDS011;10749;46.296;7.524;2022-07-29T11:21:39;4.60;;;2.88;;
21181;SDS011;10749;46.296;7.524;2022-07-29T11:24:14;5.97;;;3.40;;
21181;SDS011;10749;46.296;7.524;2022-07-29T11:29:58;3.80;;;3.40;;
21181;SDS011;10749;46.296;7.524;2022-07-29T11:32:38;3.28;;;2.97;;
21181;SDS011;10749;46.296;7.524;2022-07-29T11:35:18;4.40;;;2.70;;
21181;SDS011;10749;46.296;7.524;2022-07-29T11:37:46;4.90;;;2.78;;
21181;SDS011;10749;46.296;7.524;2022-07-29T11:43:50;6.30;;;2.60;;
21181;SDS011;10749;46.296;7.524;2022-07-29T11:49:20;3.15;;;2.20;;
21181;SDS011;10749;46.296;7.524;2022-07-29T11:51:56;3.50;;;2.60;;
21181;SDS011;10749;46.296;7.524;2022-07-29T11:54:32;3.08;;;2.67;;
21181;SDS011;10749;46.296;7.524;2022-07-29T11:56:59;3.45;;;2.25;;
21181;SDS011;10749;46.296;7.524;2022-07-29T11:59:24;3.00;;;2.60;;
21181;SDS011;10749;46.296;7.524;2022-07-29T12:01:54;6.53;;;2.75;;
21181;SDS011;10749;46.296;7.524;2022-07-29T12:04:20;2.90;;;2.53;;
21181;SDS011;10749;46.296;7.524;2022-07-29T12:06:52;4.53;;;2.58;;
21181;SDS011;10749;46.296;7.524;2022-07-29T12:09:18;3.75;;;2.60;;
21181;SDS011;10749;46.296;7.524;2022-07-29T12:11:45;4.18;;;2.30;;
21181;SDS011;10749;46.296;7.524;2022-07-29T12:14:24;3.17;;;2.38;;
21181;SDS011;10749;46.296;7.524;2022-07-29T12:16:49;3.28;;;2.45;;
21181;SDS011;10749;46.296;7.524;2022-07-29T12:19:15;4.05;;;2.90;;
21181;SDS011;10749;46.296;7.524;2022-07-29T12:21:46;5.30;;;3.10;;
21181;SDS011;10749;46.296;7.524;2022-07-29T12:24:13;4.32;;;2.85;;
21181;SDS011;10749;46.296;7.524;2022-07-29T12:26:52;4.10;;;2.58;;
21181;SDS011;10749;46.296;7.524;2022-07-29T12:29:24;2.90;;;2.53;;
21181;SDS011;10749;46.296;7.524;2022-07-29T12:31:52;4.95;;;2.40;;
21181;SDS011;10749;46.296;7.524;2022-07-29T12:34:19;2.85;;;2.30;;
21181;SDS011;10749;46.296;7.524;2022-07-29T12:36:47;3.05;;;2.35;;
21181;SDS011;10749;46.296;7.524;2022-07-29T12:39:14;3.58;;;2.65;;
21181;SDS011;10749;46.296;7.524;2022-07-29T12:41:41;3.75;;;2.45;;
21181;SDS011;10749;46.296;7.524;2022-07-29T12:44:06;3.85;;;2.50;;
21181;SDS011;10749;46.296;7.524;2022-07-29T12:46:32;4.22;;;3.13;;
21181;SDS011;10749;46.296;7.524;2022-07-29T12:48:57;2.70;;;2.50;;
21181;SDS011;10749;46.296;7.524;2022-07-29T12:51:33;3.42;;;2.42;;
21181;SDS011;10749;46.296;7.524;2022-07-29T12:54:02;3.67;;;2.60;;
21181;SDS011;10749;46.296;7.524;2022-07-29T12:56:33;3.50;;;2.45;;
21181;SDS011;10749;46.296;7.524;2022-07-29T12:58:59;3.72;;;2.60;;
21181;SDS011;10749;46.296;7.524;2022-07-29T13:01:24;3.22;;;2.30;;
21181;SDS011;10749;46.296;7.524;2022-07-29T13:03:56;2.45;;;2.15;;
21181;SDS011;10749;46.296;7.524;2022-07-29T13:06:28;4.00;;;2.58;;
21181;SDS011;10749;46.296;7.524;2022-07-29T13:09:04;3.17;;;2.03;;
21181;SDS011;10749;46.296;7.524;2022-07-29T13:11:47;2.80;;;1.92;;
21181;SDS011;10749;46.296;7.524;2022-07-29T13:14:35;2.42;;;2.13;;
21181;SDS011;10749;46.296;7.524;2022-07-29T13:19:33;4.35;;;2.40;;
21181;SDS011;10749;46.296;7.524;2022-07-29T13:21:59;2.55;;;2.20;;
21181;SDS011;10749;46.296;7.524;2022-07-29T13:24:24;3.38;;;2.30;;
21181;SDS011;10749;46.296;7.524;2022-07-29T13:26:50;4.35;;;2.47;;
21181;SDS011;10749;46.296;7.524;2022-07-29T13:29:16;3.17;;;2.33;;
21181;SDS011;10749;46.296;7.524;2022-07-29T13:31:42;2.50;;;2.28;;
21181;SDS011;10749;46.296;7.524;2022-07-29T13:34:07;4.18;;;2.53;;
21181;SDS011;10749;46.296;7.524;2022-07-29T13:36:33;3.03;;;2.67;;
21181;SDS011;10749;46.296;7.524;2022-07-29T13:38:58;3.85;;;2.53;;
21181;SDS011;10749;46.296;7.524;2022-07-29T13:41:25;4.20;;;2.53;;
21181;SDS011;10749;46.296;7.524;2022-07-29T13:43:51;6.43;;;2.63;;
21181;SDS011;10749;46.296;7.524;2022-07-29T13:46:16;4.57;;;2.70;;
21181;SDS011;10749;46.296;7.524;2022-07-29T13:48:42;3.30;;;2.53;;
21181;SDS011;10749;46.296;7.524;2022-07-29T13:51:07;5.13;;;2.80;;
21181;SDS011;10749;46.296;7.524;2022-07-29T13:53:32;5.20;;;2.63;;
21181;SDS011;10749;46.296;7.524;2022-07-29T13:55:57;2.88;;;2.60;;
21181;SDS011;10749;46.296;7.524;2022-07-29T13:58:23;3.33;;;2.53;;
21181;SDS011;10749;46.296;7.524;2022-07-29T14:00:49;5.63;;;2.90;;
21181;SDS011;10749;46.296;7.524;2022-07-29T14:03:14;2.28;;;2.08;;
21181;SDS011;10749;46.296;7.524;2022-07-29T14:05:40;2.60;;;2.13;;
21181;SDS011;10749;46.296;7.524;2022-07-29T14:08:05;3.75;;;2.15;;
21181;SDS011;10749;46.296;7.524;2022-07-29T14:10:30;3.65;;;2.00;;
21181;SDS011;10749;46.296;7.524;2022-07-29T14:12:55;3.15;;;2.28;;
21181;SDS011;10749;46.296;7.524;2022-07-29T14:15:21;3.67;;;2.38;;
21181;SDS011;10749;46.296;7.524;2022-07-29T14:17:46;6.63;;;2.08;;
21181;SDS011;10749;46.296;7.524;2022-07-29T14:20:12;2.33;;;2.10;;
21181;SDS011;10749;46.296;7.524;2022-07-29T14:22:37;2.80;;;2.17;;
21181;SDS011;10749;46.296;7.524;2022-07-29T14:25:02;3.08;;;2.22;;
21181;SDS011;10749;46.296;7.524;2022-07-29T14:27:28;4.38;;;2.08;;
21181;SDS011;10749;46.296;7.524;2022-07-29T14:29:53;5.10;;;1.98;;
21181;SDS011;10749;46.296;7.524;2022-07-29T14:32:18;3.88;;;2.28;;
21181;SDS011;10749;46.296;7.524;2022-07-29T14:34:44;4.05;;;1.95;;
21181;SDS011;10749;46.296;7.524;2022-07-29T14:37:09;2.60;;;2.10;;
21181;SDS011;10749;46.296;7.524;2022-07-29T14:39:34;2.65;;;2.25;;
21181;SDS011;10749;46.296;7.524;2022-07-29T14:42:00;2.63;;;2.20;;
21181;SDS011;10749;46.296;7.524;2022-07-29T14:44:26;3.10;;;2.30;;
21181;SDS011;10749;46.296;7.524;2022-07-29T14:46:55;2.42;;;1.85;;
21181;SDS011;10749;46.296;7.524;2022-07-29T14:49:22;3.67;;;2.35;;
21181;SDS011;10749;46.296;7.524;2022-07-29T14:51:47;2.85;;;2.30;;
21181;SDS011;10749;46.296;7.524;2022-07-29T14:54:12;2.92;;;2.63;;
21181;SDS011;10749;46.296;7.524;2022-07-29T14:56:37;3.50;;;2.40;;
21181;SDS011;10749;46.296;7.524;2022-07-29T14:59:03;4.70;;;2.60;;
21181;SDS011;10749;46.296;7.524;2022-07-29T15:01:28;3.30;;;2.60;;
21181;SDS011;10749;46.296;7.524;2022-07-29T15:03:54;4.72;;;2.80;;
21181;SDS011;10749;46.296;7.524;2022-07-29T15:06:19;4.03;;;2.63;;
21181;SDS011;10749;46.296;7.524;2022-07-29T15:08:45;3.17;;;2.75;;
21181;SDS011;10749;46.296;7.524;2022-07-29T15:11:10;2.78;;;2.50;;
21181;SDS011;10749;46.296;7.524;2022-07-29T15:13:35;3.33;;;2.75;;
21181;SDS011;10749;46.296;7.524;2022-07-29T15:16:00;5.15;;;2.60;;
21181;SDS011;10749;46.296;7.524;2022-07-29T15:18:26;3.22;;;2.67;;
21181;SDS011;10749;46.296;7.524;2022-07-29T15:20:51;2.80;;;2.50;;
21181;SDS011;10749;46.296;7.524;2022-07-29T15:23:17;3.13;;;2.80;;
21181;SDS011;10749;46.296;7.524;2022-07-29T15:25:42;4.53;;;2.80;;
21181;SDS011;10749;46.296;7.524;2022-07-29T15:28:07;4.88;;;3.30;;
21181;SDS011;10749;46.296;7.524;2022-07-29T15:30:33;4.03;;;2.88;;
21181;SDS011;10749;46.296;7.524;2022-07-29T15:33:01;3.40;;;3.10;;
21181;SDS011;10749;46.296;7.524;2022-07-29T15:35:27;3.05;;;2.80;;
21181;SDS011;10749;46.296;7.524;2022-07-29T15:37:53;3.80;;;3.20;;